Time;durP1;ratioP1;P1;durP2;ratioP2;P2;SDS_P1;SDS_P2;PMS_P1;PMS_P2;Temp;Humidity;BMP_temperature;BMP_pressure;BME280_temperature;BME280_humidity;BME280_pressure;Samples;Min_cycle;Max_cycle;Signal;HPM_P1;HPM_P2
2023/08/30 00:00:55;;;;;;;2.30;1.98;;;17.60;82.30;;;;;;5136018;27;20027;-67
2023/08/30 00:03:21;;;;;;;4.70;2.67;;;17.60;82.40;;;;;;5135813;27;20042;-67
2023/08/30 00:05:47;;;;;;;3.03;2.25;;;17.60;82.60;;;;;;5135981;27;20019;-67
2023/08/30 00:08:18;;;;;;;3.58;2.50;;;17.60;82.50;;;;;;5136481;27;20027;-67
2023/08/30 00:10:44;;;;;;;2.67;1.98;;;17.60;82.70;;;;;;5135881;27;20072;-67
2023/08/30 00:13:10;;;;;;;2.92;1.98;;;17.70;82.40;;;;;;5135891;27;20404;-67
2023/08/30 00:15:37;;;;;;;3.35;2.08;;;17.70;82.40;;;;;;5135886;27;20026;-66
2023/08/30 00:18:03;;;;;;;5.38;2.25;;;17.70;82.40;;;;;;5136031;28;20074;-66
2023/08/30 00:20:29;;;;;;;4.90;2.05;;;17.70;82.30;;;;;;5135788;27;20012;-65
2023/08/30 00:22:55;;;;;;;2.58;1.42;;;17.70;82.20;;;;;;5135632;27;20027;-66
2023/08/30 00:25:21;;;;;;;3.03;1.90;;;17.70;82.10;;;;;;5136217;28;20019;-66
2023/08/30 00:27:47;;;;;;;2.47;1.55;;;17.80;82.10;;;;;;5135751;27;20019;-66
2023/08/30 00:30:13;;;;;;;1.83;1.52;;;17.80;82.10;;;;;;5135951;28;20386;-66
2023/08/30 00:32:39;;;;;;;2.20;1.98;;;17.80;82.10;;;;;;5135323;27;20043;-66
2023/08/30 00:35:05;;;;;;;2.03;1.60;;;17.80;82.10;;;;;;5135685;27;20048;-67
2023/08/30 00:37:31;;;;;;;2.25;1.70;;;17.80;82.10;;;;;;5135653;27;20152;-67
2023/08/30 00:39:59;;;;;;;2.10;1.90;;;17.80;82.30;;;;;;5134605;28;20117;-67
2023/08/30 00:42:26;;;;;;;2.65;1.60;;;17.80;82.30;;;;;;5135665;27;20023;-67
2023/08/30 00:44:51;;;;;;;3.45;2.00;;;17.80;82.30;;;;;;5135840;27;20015;-67
2023/08/30 00:47:18;;;;;;;2.70;1.88;;;17.90;82.40;;;;;;5138296;27;20038;-67
2023/08/30 00:49:44;;;;;;;2.60;1.77;;;17.80;82.20;;;;;;5139201;27;20391;-67
2023/08/30 00:52:12;;;;;;;4.03;2.20;;;17.80;82.20;;;;;;5139323;27;20105;-67
2023/08/30 00:54:40;;;;;;;1.88;1.75;;;17.90;82.20;;;;;;5139040;27;20440;-67
2023/08/30 00:57:09;;;;;;;2.40;1.95;;;17.80;82.20;;;;;;5139618;27;20072;-67
2023/08/30 00:59:36;;;;;;;3.95;2.10;;;17.80;82.20;;;;;;5138088;27;20019;-67
2023/08/30 01:02:02;;;;;;;2.03;1.83;;;17.80;82.30;;;;;;5139369;27;20046;-67
2023/08/30 01:04:28;;;;;;;5.22;1.88;;;17.80;82.30;;;;;;5139045;27;20036;-67
2023/08/30 01:06:54;;;;;;;5.28;1.92;;;17.90;82.30;;;;;;5138826;27;20094;-67
2023/08/30 01:09:21;;;;;;;2.63;1.50;;;17.80;82.30;;;;;;5138786;27;20431;-66
2023/08/30 01:11:55;;;;;;;2.65;1.65;;;17.90;82.30;;;;;;5138912;27;20100;-66
2023/08/30 01:14:26;;;;;;;3.95;1.90;;;17.90;82.30;;;;;;5138949;27;20026;-67
2023/08/30 01:16:52;;;;;;;2.05;1.85;;;17.90;82.30;;;;;;5138024;27;20106;-67
2023/08/30 01:19:57;;;;;;;4.20;2.00;;;17.90;82.30;;;;;;5138784;27;20020;-67
2023/08/30 01:22:29;;;;;;;;;;;17.90;82.30;;;;;;5055818;28;20032;-67
2023/08/30 01:25:04;;;;;;;3.65;2.22;;;17.90;82.40;;;;;;5056046;28;19913;-67
2023/08/30 01:27:32;;;;;;;3.35;2.13;;;18.00;82.40;;;;;;5056115;28;20045;-67
2023/08/30 01:29:58;;;;;;;5.72;1.80;;;18.00;82.20;;;;;;5056196;28;20032;-67
2023/08/30 01:32:25;;;;;;;2.10;1.90;;;18.00;82.20;;;;;;5055162;28;20056;-67
2023/08/30 01:34:52;;;;;;;3.33;2.00;;;18.00;82.20;;;;;;5055900;28;20458;-67
2023/08/30 01:37:18;;;;;;;3.47;2.00;;;18.10;82.20;;;;;;5055800;28;20067;-67
2023/08/30 01:39:46;;;;;;;7.32;3.08;;;18.10;82.10;;;;;;5055301;28;20087;-67
2023/08/30 01:42:14;;;;;;;2.83;2.10;;;18.10;82.40;;;;;;5038881;28;20400;-67
2023/08/30 01:44:44;;;;;;;3.40;2.53;;;18.00;82.20;;;;;;5055175;28;20036;-67
2023/08/30 01:47:11;;;;;;;6.15;2.30;;;17.90;82.20;;;;;;5055280;28;20055;-67
2023/08/30 01:49:39;;;;;;;3.33;2.00;;;17.90;82.30;;;;;;5055345;28;20108;-68
2023/08/30 01:52:07;;;;;;;3.03;2.20;;;17.90;82.30;;;;;;5061876;27;20216;-66
2023/08/30 01:54:33;;;;;;;4.93;2.25;;;17.90;82.40;;;;;;5137915;27;20031;-67
2023/08/30 01:57:00;;;;;;;3.35;2.00;;;17.90;82.50;;;;;;5137959;27;20385;-66
2023/08/30 01:59:26;;;;;;;4.32;2.78;;;17.90;82.50;;;;;;5137822;27;20027;-66
2023/08/30 02:01:52;;;;;;;4.13;2.40;;;17.90;82.50;;;;;;5137919;27;20019;-66
2023/08/30 02:04:18;;;;;;;5.88;3.08;;;17.90;82.40;;;;;;5138179;27;20336;-66
2023/08/30 02:07:03;;;;;;;4.97;2.80;;;17.90;82.40;;;;;;5137685;27;20019;-66
2023/08/30 02:09:57;;;;;;;3.85;2.08;;;17.90;82.50;;;;;;5137935;27;20023;-66
2023/08/30 02:12:26;;;;;;;2.83;2.30;;;17.90;82.50;;;;;;5137491;27;20016;-67
2023/08/30 02:14:53;;;;;;;2.20;2.00;;;17.90;82.60;;;;;;5136478;27;20028;-67
2023/08/30 02:17:19;;;;;;;3.40;2.00;;;17.90;82.60;;;;;;5137692;27;20012;-66
2023/08/30 02:19:45;;;;;;;4.07;2.58;;;17.90;82.60;;;;;;5137401;27;20151;-66
2023/08/30 02:22:12;;;;;;;5.28;2.33;;;17.90;82.60;;;;;;5136361;27;20436;-67
2023/08/30 02:24:38;;;;;;;3.85;2.80;;;18.00;82.50;;;;;;5137305;27;20019;-66
2023/08/30 02:27:04;;;;;;;4.50;2.42;;;18.00;82.50;;;;;;5136247;27;20126;-66
2023/08/30 02:29:30;;;;;;;3.35;2.50;;;17.90;82.50;;;;;;5137210;27;20030;-67
2023/08/30 02:31:56;;;;;;;7.25;3.25;;;18.00;82.60;;;;;;5137092;27;20027;-67
2023/08/30 02:34:22;;;;;;;2.28;2.05;;;18.00;82.90;;;;;;5137751;27;20023;-67
2023/08/30 02:36:48;;;;;;;4.10;2.40;;;17.90;82.70;;;;;;5137384;27;20441;-67
2023/08/30 02:39:15;;;;;;;5.88;2.65;;;17.90;82.70;;;;;;5137020;27;20019;-67
2023/08/30 02:41:41;;;;;;;4.20;2.20;;;17.90;82.80;;;;;;5137241;27;20050;-67
2023/08/30 02:44:10;;;;;;;4.65;2.53;;;17.90;82.80;;;;;;5136839;27;20476;-67
2023/08/30 02:46:37;;;;;;;4.65;2.60;;;17.90;82.70;;;;;;5136847;27;20092;-67
2023/08/30 02:49:03;;;;;;;7.32;3.72;;;17.90;82.80;;;;;;5137162;27;20015;-67
2023/08/30 02:51:29;;;;;;;4.53;3.03;;;17.90;83.00;;;;;;5137358;27;20030;-67
2023/08/30 02:53:55;;;;;;;3.92;2.55;;;17.90;82.80;;;;;;5136985;27;20065;-67
2023/08/30 02:56:21;;;;;;;4.00;2.70;;;17.90;83.00;;;;;;5137285;27;20051;-67
2023/08/30 02:58:47;;;;;;;5.78;2.90;;;17.90;83.00;;;;;;5136954;27;20047;-67
2023/08/30 03:01:13;;;;;;;5.82;3.38;;;17.90;83.20;;;;;;5137221;27;20083;-67
2023/08/30 03:03:39;;;;;;;3.97;2.60;;;17.90;83.00;;;;;;5136484;27;20062;-66
2023/08/30 03:06:05;;;;;;;5.47;2.72;;;17.80;82.90;;;;;;5136642;27;20031;-66
2023/08/30 03:08:32;;;;;;;5.80;3.63;;;17.80;83.00;;;;;;5135744;27;20015;-67
2023/08/30 03:11:11;;;;;;;3.72;2.78;;;17.80;82.90;;;;;;5136270;27;20027;-67
2023/08/30 03:13:37;;;;;;;5.05;2.60;;;17.80;82.90;;;;;;5118994;27;20025;-68
2023/08/30 03:16:14;;;;;;;3.47;2.70;;;17.80;83.00;;;;;;5137015;27;20051;-67
2023/08/30 03:18:41;;;;;;;6.25;2.72;;;17.80;83.00;;;;;;5135829;27;20098;-67
2023/08/30 03:21:07;;;;;;;3.28;2.45;;;17.80;83.10;;;;;;5136397;27;20031;-67
2023/08/30 03:23:35;;;;;;;2.63;2.40;;;17.80;83.10;;;;;;5136159;27;20025;-67
2023/08/30 03:26:15;;;;;;;2.60;2.30;;;17.90;83.00;;;;;;5136282;27;20023;-67
2023/08/30 03:28:43;;;;;;;2.85;2.40;;;17.90;82.90;;;;;;5135632;27;20012;-67
2023/08/30 03:31:21;;;;;;;4.55;2.58;;;17.90;83.00;;;;;;5136271;27;20105;-67
2023/08/30 03:33:48;;;;;;;2.83;2.20;;;17.90;83.00;;;;;;5136039;27;20118;-67
2023/08/30 03:36:16;;;;;;;3.83;2.58;;;17.90;83.00;;;;;;5136226;27;20027;-67
2023/08/30 03:38:42;;;;;;;7.07;2.50;;;17.90;83.00;;;;;;5136673;27;20031;-67
2023/08/30 03:41:10;;;;;;;3.80;3.10;;;17.90;82.90;;;;;;5135484;28;20080;-67
2023/08/30 03:43:36;;;;;;;3.30;2.50;;;17.90;82.90;;;;;;5136107;27;20474;-67
2023/08/30 03:46:05;;;;;;;4.13;2.53;;;17.90;82.90;;;;;;5136086;28;20019;-67
2023/08/30 03:48:32;;;;;;;3.78;2.60;;;17.90;82.90;;;;;;5136331;27;20464;-67
2023/08/30 03:50:58;;;;;;;4.28;2.80;;;17.90;83.00;;;;;;5136019;27;20079;-67
2023/08/30 03:53:25;;;;;;;4.18;2.58;;;17.90;83.10;;;;;;5136121;28;20358;-67
2023/08/30 03:55:51;;;;;;;4.43;2.60;;;17.90;83.00;;;;;;5136017;27;20452;-67
2023/08/30 03:58:20;;;;;;;4.55;2.63;;;17.90;83.00;;;;;;5135880;27;20023;-67
2023/08/30 04:00:46;;;;;;;7.90;3.53;;;17.90;83.10;;;;;;5136222;27;20031;-67
2023/08/30 04:03:14;;;;;;;6.38;3.30;;;17.90;83.10;;;;;;5136060;27;20027;-67
2023/08/30 04:05:41;;;;;;;3.78;2.53;;;17.90;83.10;;;;;;5136170;27;20020;-67
2023/08/30 04:08:08;;;;;;;3.55;3.00;;;17.90;83.10;;;;;;5136157;27;20015;-67
2023/08/30 04:10:35;;;;;;;3.90;3.20;;;17.90;83.10;;;;;;5136176;27;20027;-67
2023/08/30 04:13:02;;;;;;;4.95;3.28;;;17.90;83.20;;;;;;5135703;27;20023;-67
2023/08/30 04:15:28;;;;;;;4.13;2.65;;;17.90;83.20;;;;;;5135752;27;20038;-67
2023/08/30 04:17:54;;;;;;;4.32;3.15;;;17.90;83.10;;;;;;5135837;27;20030;-67
2023/08/30 04:20:20;;;;;;;4.35;3.00;;;17.90;83.10;;;;;;5136344;27;20027;-67
2023/08/30 04:22:46;;;;;;;3.83;2.90;;;17.90;83.10;;;;;;5138841;27;20038;-67
2023/08/30 04:25:12;;;;;;;4.50;2.50;;;17.90;83.10;;;;;;5139970;27;20090;-67
2023/08/30 04:27:38;;;;;;;4.65;2.88;;;17.90;83.10;;;;;;5139901;27;20031;-67
2023/08/30 04:30:04;;;;;;;2.92;2.58;;;17.90;83.10;;;;;;5139614;27;20421;-67
2023/08/30 04:32:30;;;;;;;3.03;2.67;;;17.90;83.00;;;;;;5139573;27;20039;-67
2023/08/30 04:34:56;;;;;;;3.92;2.38;;;17.90;83.00;;;;;;5140030;27;20023;-68
2023/08/30 04:37:22;;;;;;;6.40;3.00;;;18.00;83.00;;;;;;5140021;27;20019;-67
2023/08/30 04:39:48;;;;;;;3.42;3.00;;;17.90;83.10;;;;;;5139405;27;20027;-67
2023/08/30 04:42:15;;;;;;;4.22;2.92;;;17.90;83.00;;;;;;5139311;27;20015;-67
2023/08/30 04:44:41;;;;;;;5.10;3.53;;;17.90;83.00;;;;;;5139248;27;20106;-67
2023/08/30 04:47:07;;;;;;;3.78;3.30;;;17.90;83.10;;;;;;5139248;27;20092;-67
2023/08/30 04:49:33;;;;;;;4.35;2.95;;;17.90;83.10;;;;;;5139503;27;20446;-67
2023/08/30 04:51:59;;;;;;;3.67;2.65;;;17.90;83.10;;;;;;5139576;27;20023;-67
2023/08/30 04:54:25;;;;;;;3.67;2.97;;;17.90;83.10;;;;;;5139168;27;20100;-68
2023/08/30 04:56:51;;;;;;;6.43;3.80;;;17.90;83.10;;;;;;5139086;27;20023;-67
2023/08/30 04:59:17;;;;;;;6.20;3.95;;;17.90;83.20;;;;;;5139075;27;20035;-67
2023/08/30 05:01:44;;;;;;;7.95;4.80;;;17.90;83.40;;;;;;5138965;27;20027;-68
2023/08/30 05:04:10;;;;;;;8.93;4.47;;;17.80;83.40;;;;;;5138775;27;20031;-68
2023/08/30 05:06:36;;;;;;;8.55;4.32;;;17.80;83.50;;;;;;5137877;27;20027;-68
2023/08/30 05:09:03;;;;;;;9.73;4.78;;;17.70;83.40;;;;;;5138885;27;20068;-68
2023/08/30 05:11:29;;;;;;;10.75;5.10;;;17.70;83.70;;;;;;5138813;27;20098;-69
2023/08/30 05:13:55;;;;;;;7.03;3.92;;;17.80;83.80;;;;;;5138642;27;20088;-68
2023/08/30 05:16:22;;;;;;;7.88;4.00;;;17.70;83.60;;;;;;5139158;27;20019;-68
2023/08/30 05:18:48;;;;;;;7.65;4.43;;;17.70;83.60;;;;;;5138689;27;20070;-68
2023/08/30 05:21:14;;;;;;;6.30;4.20;;;17.70;83.90;;;;;;5138576;27;20043;-68
2023/08/30 05:23:44;;;;;;;5.30;3.60;;;17.70;83.90;;;;;;5139053;27;20027;-67
2023/08/30 05:26:12;;;;;;;5.97;3.78;;;17.70;83.70;;;;;;5138789;27;20027;-67
2023/08/30 05:28:38;;;;;;;4.55;3.53;;;17.70;83.70;;;;;;5139032;27;20055;-67
2023/08/30 05:31:05;;;;;;;4.95;3.30;;;17.70;83.70;;;;;;5138848;27;20026;-67
2023/08/30 05:33:31;;;;;;;5.75;3.00;;;17.80;83.70;;;;;;5133533;27;20062;-67
2023/08/30 05:35:57;;;;;;;5.10;3.20;;;17.80;83.60;;;;;;5133047;27;20023;-67
2023/08/30 05:38:23;;;;;;;8.40;4.25;;;17.80;83.60;;;;;;5116749;27;20097;-67
2023/08/30 05:40:49;;;;;;;10.82;4.10;;;17.80;83.70;;;;;;5129235;27;20031;-67
2023/08/30 05:43:16;;;;;;;6.45;3.53;;;17.90;83.70;;;;;;5138015;27;20371;-67
2023/08/30 05:45:41;;;;;;;5.97;3.22;;;17.90;83.60;;;;;;5136192;27;20027;-66
2023/08/30 05:48:07;;;;;;;5.30;3.38;;;17.90;83.60;;;;;;5137424;27;20367;-67
2023/08/30 05:50:33;;;;;;;7.13;3.60;;;18.00;83.60;;;;;;5114656;27;20476;-67
2023/08/30 05:52:59;;;;;;;5.15;3.47;;;18.00;83.60;;;;;;5135712;27;20355;-67
2023/08/30 05:55:26;;;;;;;5.22;3.28;;;18.00;83.60;;;;;;5137249;27;20027;-67
2023/08/30 05:57:52;;;;;;;6.72;3.78;;;18.00;83.60;;;;;;5137925;27;20054;-67
2023/08/30 06:00:18;;;;;;;4.93;3.58;;;18.10;83.50;;;;;;5122150;27;20038;-66
2023/08/30 06:02:44;;;;;;;7.13;3.78;;;18.10;83.50;;;;;;5130137;27;20054;-65
2023/08/30 06:05:10;;;;;;;6.00;4.10;;;18.10;83.50;;;;;;5136217;27;20033;-67
2023/08/30 06:07:36;;;;;;;9.25;5.20;;;18.20;83.50;;;;;;5137090;27;20406;-69
2023/08/30 06:10:02;;;;;;;11.48;5.40;;;18.20;83.40;;;;;;5136029;27;20015;-68
2023/08/30 06:12:28;;;;;;;9.93;5.10;;;18.20;83.20;;;;;;5127076;27;20032;-69
2023/08/30 06:14:55;;;;;;;11.52;5.30;;;18.20;83.10;;;;;;5127289;27;20030;-68
2023/08/30 06:17:21;;;;;;;11.20;4.63;;;18.20;83.20;;;;;;5137112;27;20027;-69
2023/08/30 06:19:47;;;;;;;6.88;4.10;;;18.20;83.10;;;;;;5128252;27;20050;-66
2023/08/30 06:22:14;;;;;;;5.93;4.03;;;18.20;83.00;;;;;;5132407;27;20038;-66
2023/08/30 06:24:48;;;;;;;6.70;4.60;;;18.20;83.00;;;;;;5127698;27;20030;-66
2023/08/30 06:27:16;;;;;;;8.00;4.57;;;18.20;83.20;;;;;;5117849;27;20023;-68
2023/08/30 06:29:42;;;;;;;6.47;5.10;;;18.20;83.00;;;;;;5129418;27;20019;-67
2023/08/30 06:32:09;;;;;;;6.95;4.25;;;18.30;83.00;;;;;;5134106;27;20042;-67
2023/08/30 06:34:35;;;;;;;6.13;3.60;;;18.30;82.90;;;;;;5135933;27;20023;-69
2023/08/30 06:37:01;;;;;;;5.63;3.80;;;18.30;82.90;;;;;;5132438;27;20053;-66
2023/08/30 06:39:33;;;;;;;6.15;4.00;;;18.30;82.90;;;;;;5122307;27;20408;-68
2023/08/30 06:41:59;;;;;;;4.78;3.05;;;18.40;83.00;;;;;;5124429;27;20035;-64
2023/08/30 06:44:25;;;;;;;5.00;2.97;;;18.40;82.90;;;;;;5117555;27;20073;-66
2023/08/30 06:46:51;;;;;;;4.80;2.70;;;18.40;82.90;;;;;;5131063;27;20027;-65
2023/08/30 06:49:17;;;;;;;2.90;2.53;;;18.40;83.00;;;;;;5127919;27;20026;-64
2023/08/30 06:51:43;;;;;;;4.55;2.70;;;18.50;82.90;;;;;;5118155;27;20335;-64
2023/08/30 06:54:08;;;;;;;4.30;2.40;;;18.50;82.90;;;;;;5117351;27;20028;-65
2023/08/30 06:56:36;;;;;;;6.97;3.20;;;18.60;82.80;;;;;;5117904;27;20035;-64
2023/08/30 06:59:03;;;;;;;4.00;2.92;;;18.70;82.50;;;;;;5134716;27;20131;-67
2023/08/30 07:01:29;;;;;;;4.40;3.03;;;18.70;82.50;;;;;;5136596;27;20040;-65
2023/08/30 07:03:55;;;;;;;8.77;3.20;;;18.70;82.70;;;;;;5132997;27;20019;-66
2023/08/30 07:06:21;;;;;;;6.18;3.13;;;18.80;82.60;;;;;;5131871;27;20325;-65
2023/08/30 07:08:47;;;;;;;7.32;3.03;;;18.80;82.50;;;;;;5134811;27;20022;-65
2023/08/30 07:11:13;;;;;;;6.63;3.05;;;18.80;82.70;;;;;;5135179;27;20030;-65
2023/08/30 07:13:38;;;;;;;7.45;2.70;;;18.90;82.70;;;;;;5127758;27;20034;-64
2023/08/30 07:16:05;;;;;;;6.22;3.15;;;18.90;82.60;;;;;;5136147;27;20058;-64
2023/08/30 07:18:30;;;;;;;5.40;2.42;;;19.00;82.60;;;;;;5134525;27;20047;-65
2023/08/30 07:20:57;;;;;;;4.90;2.80;;;19.10;82.40;;;;;;5130805;27;20054;-65
2023/08/30 07:23:33;;;;;;;4.47;2.50;;;19.10;82.20;;;;;;5135651;27;20076;-66
2023/08/30 07:25:59;;;;;;;2.72;2.17;;;19.20;81.90;;;;;;5122241;27;20032;-63
2023/08/30 07:28:25;;;;;;;2.00;1.80;;;19.20;81.70;;;;;;5125998;27;20019;-68
2023/08/30 07:30:50;;;;;;;3.17;1.80;;;19.30;81.80;;;;;;5131065;27;20414;-66
2023/08/30 07:33:16;;;;;;;2.05;1.65;;;19.30;81.70;;;;;;5134586;27;20104;-68
2023/08/30 07:35:43;;;;;;;1.50;1.40;;;19.40;81.60;;;;;;5135649;28;20027;-69
2023/08/30 07:38:09;;;;;;;4.65;1.80;;;19.40;81.50;;;;;;5135946;27;20438;-70
2023/08/30 07:40:35;;;;;;;2.83;1.75;;;19.40;81.30;;;;;;5129541;28;20024;-67
2023/08/30 07:43:00;;;;;;;4.05;1.58;;;19.50;81.10;;;;;;5124445;28;20092;-68
2023/08/30 07:45:26;;;;;;;2.17;1.70;;;19.50;80.90;;;;;;5125774;28;20168;-68
2023/08/30 07:47:52;;;;;;;5.40;1.80;;;19.60;80.60;;;;;;5121127;27;20030;-67
2023/08/30 07:50:18;;;;;;;1.75;1.50;;;19.50;80.00;;;;;;5116835;28;20040;-68
2023/08/30 07:52:45;;;;;;;3.47;1.17;;;19.50;79.70;;;;;;5135014;28;20012;-65
2023/08/30 07:55:11;;;;;;;2.92;1.40;;;19.50;79.20;;;;;;5136686;27;20073;-67
2023/08/30 07:57:40;;;;;;;2.42;1.30;;;19.50;79.20;;;;;;5130604;27;20047;-67
2023/08/30 08:00:07;;;;;;;5.53;1.35;;;19.50;79.10;;;;;;5132078;27;20023;-69
2023/08/30 08:02:33;;;;;;;2.10;1.60;;;19.40;79.00;;;;;;5138788;27;20153;-69
2023/08/30 08:04:59;;;;;;;2.25;1.40;;;19.50;79.30;;;;;;5128053;27;20045;-68
2023/08/30 08:07:25;;;;;;;2.60;1.33;;;19.40;79.50;;;;;;5132979;27;20023;-65
2023/08/30 08:09:51;;;;;;;3.40;1.48;;;19.50;78.90;;;;;;5131609;27;20027;-63
2023/08/30 08:12:17;;;;;;;2.00;1.67;;;19.50;79.30;;;;;;5138982;27;20046;-64
2023/08/30 08:14:43;;;;;;;5.22;1.90;;;19.50;79.20;;;;;;5134361;27;20066;-67
2023/08/30 08:17:09;;;;;;;2.67;1.67;;;19.50;79.10;;;;;;5139203;27;20051;-68
2023/08/30 08:19:39;;;;;;;3.42;1.80;;;19.50;79.10;;;;;;5138949;27;20090;-64
2023/08/30 08:22:06;;;;;;;5.60;2.20;;;19.60;79.20;;;;;;5135446;27;20023;-65
2023/08/30 08:24:32;;;;;;;5.18;1.20;;;19.60;79.40;;;;;;5137698;27;20023;-64
2023/08/30 08:26:58;;;;;;;1.83;1.23;;;19.70;79.50;;;;;;5139250;27;20114;-66
2023/08/30 08:29:26;;;;;;;4.22;1.73;;;19.70;79.50;;;;;;5127564;27;20445;-66
2023/08/30 08:31:51;;;;;;;1.80;1.70;;;19.80;79.00;;;;;;5134745;27;20112;-65
2023/08/30 08:34:17;;;;;;;3.25;1.65;;;19.80;79.50;;;;;;5138700;27;20422;-66
2023/08/30 08:36:43;;;;;;;3.90;1.67;;;19.80;79.50;;;;;;5138329;27;20110;-73
2023/08/30 08:39:09;;;;;;;1.75;1.42;;;19.90;79.50;;;;;;5136466;27;20046;-62
2023/08/30 08:41:42;;;;;;;1.60;1.35;;;20.00;79.30;;;;;;5138595;27;20058;-61
2023/08/30 08:44:09;;;;;;;2.90;1.40;;;20.00;78.90;;;;;;5134317;27;20427;-65
2023/08/30 08:46:38;;;;;;;1.67;1.20;;;20.20;78.90;;;;;;5119152;28;20016;-64
2023/08/30 08:49:14;;;;;;;1.83;1.10;;;20.30;78.80;;;;;;5127005;27;20449;-67
2023/08/30 08:51:42;;;;;;;2.42;1.00;;;20.50;78.50;;;;;;5123429;27;20020;-67
2023/08/30 08:54:09;;;;;;;1.63;1.08;;;20.60;78.10;;;;;;5137543;27;20103;-69
2023/08/30 08:56:38;;;;;;;2.38;0.80;;;20.70;77.60;;;;;;5130727;27;20051;-62
2023/08/30 08:59:08;;;;;;;1.30;0.95;;;20.90;77.40;;;;;;5124934;27;20031;-66
2023/08/30 09:01:35;;;;;;;2.33;1.08;;;20.90;76.80;;;;;;5131390;27;20048;-62
2023/08/30 09:04:06;;;;;;;2.15;0.90;;;21.00;76.50;;;;;;5125944;27;20039;-64
2023/08/30 09:06:32;;;;;;;2.00;0.80;;;21.10;76.10;;;;;;5124207;27;20032;-64
2023/08/30 09:08:58;;;;;;;1.65;0.93;;;21.20;76.10;;;;;;5117782;28;20020;-67
2023/08/30 09:11:24;;;;;;;1.10;0.90;;;21.30;75.80;;;;;;5118262;28;20016;-67
2023/08/30 09:13:50;;;;;;;2.50;1.00;;;21.40;75.60;;;;;;5118184;28;20353;-68
2023/08/30 09:16:17;;;;;;;2.00;0.82;;;21.50;75.50;;;;;;5133582;27;20117;-67
2023/08/30 09:18:43;;;;;;;1.08;0.90;;;21.60;75.40;;;;;;5137378;27;20376;-65
2023/08/30 09:21:10;;;;;;;0.95;0.85;;;21.70;75.10;;;;;;5137711;27;20106;-67
2023/08/30 09:23:37;;;;;;;0.68;0.68;;;21.80;74.90;;;;;;5103497;27;20037;-65
2023/08/30 09:26:03;;;;;;;1.30;0.90;;;21.90;74.80;;;;;;5120406;27;20034;-64
2023/08/30 09:28:29;;;;;;;1.00;0.75;;;21.90;74.80;;;;;;5138957;27;20344;-64
2023/08/30 09:31:02;;;;;;;0.50;0.50;;;22.00;74.60;;;;;;5121907;27;20039;-65
2023/08/30 09:33:32;;;;;;;1.83;0.90;;;22.00;74.10;;;;;;5120344;27;20138;-64
2023/08/30 09:35:59;;;;;;;1.15;0.82;;;22.10;73.60;;;;;;5117790;28;20348;-65
2023/08/30 09:38:25;;;;;;;1.90;0.90;;;22.10;72.40;;;;;;5117630;28;20038;-67
2023/08/30 09:41:04;;;;;;;1.17;0.73;;;22.10;72.70;;;;;;5117703;28;20402;-64
2023/08/30 09:43:31;;;;;;;4.38;1.48;;;22.00;73.00;;;;;;5116439;28;20037;-65
2023/08/30 09:45:58;;;;;;;3.05;1.17;;;22.10;73.10;;;;;;5119858;27;20436;-63
2023/08/30 09:48:29;;;;;;;1.48;1.10;;;22.00;73.20;;;;;;5137959;27;20107;-66
2023/08/30 09:50:57;;;;;;;4.20;1.50;;;22.00;73.10;;;;;;5118618;27;20055;-70
2023/08/30 09:53:27;;;;;;;3.58;1.90;;;22.00;73.20;;;;;;5115447;28;20088;-67
2023/08/30 09:55:54;;;;;;;5.97;1.90;;;22.00;73.40;;;;;;5126399;27;20027;-67
2023/08/30 09:58:24;;;;;;;5.00;1.58;;;22.00;73.70;;;;;;5137167;27;20027;-65
2023/08/30 10:00:51;;;;;;;2.15;1.58;;;22.10;73.20;;;;;;5136611;27;20019;-68
2023/08/30 10:03:17;;;;;;;1.50;1.40;;;22.20;73.40;;;;;;5137736;27;20039;-66
2023/08/30 10:05:46;;;;;;;4.03;1.70;;;22.20;73.40;;;;;;5121728;27;20353;-68
2023/08/30 10:08:14;;;;;;;2.05;1.45;;;22.40;73.50;;;;;;5114430;27;20019;-64
2023/08/30 10:10:40;;;;;;;3.90;1.85;;;22.40;73.10;;;;;;5134391;27;20019;-65
2023/08/30 10:13:07;;;;;;;4.32;1.63;;;22.40;73.00;;;;;;5126306;27;20395;-64
2023/08/30 10:15:38;;;;;;;5.93;2.20;;;22.50;73.20;;;;;;5116098;27;20024;-65
2023/08/30 10:18:05;;;;;;;4.85;2.28;;;22.60;72.90;;;;;;5114878;28;20019;-64
2023/08/30 10:20:32;;;;;;;3.15;2.15;;;22.70;72.70;;;;;;5126502;27;20020;-65
2023/08/30 10:23:00;;;;;;;3.35;2.00;;;22.80;73.00;;;;;;5136791;27;20045;-65
2023/08/30 10:25:29;;;;;;;1.80;1.70;;;22.90;72.70;;;;;;5136270;27;20026;-65
2023/08/30 10:27:56;;;;;;;4.22;1.77;;;23.00;72.50;;;;;;5136851;27;20143;-64
2023/08/30 10:30:23;;;;;;;2.05;1.42;;;23.20;72.00;;;;;;5134541;27;20023;-64
2023/08/30 10:32:49;;;;;;;1.60;1.50;;;23.30;71.50;;;;;;5128768;27;20481;-65
2023/08/30 10:35:17;;;;;;;2.65;1.50;;;23.40;70.80;;;;;;5116658;27;20020;-65
2023/08/30 10:37:55;;;;;;;3.28;1.83;;;23.50;70.90;;;;;;5116802;28;20345;-65
2023/08/30 10:40:22;;;;;;;2.15;1.77;;;23.70;70.30;;;;;;5116800;28;20024;-65
2023/08/30 10:43:02;;;;;;;1.40;1.30;;;23.70;69.10;;;;;;5116361;28;20031;-65
2023/08/30 10:45:28;;;;;;;0.90;0.90;;;23.80;69.40;;;;;;5116258;28;20326;-66
2023/08/30 10:47:58;;;;;;;1.48;1.10;;;23.90;69.30;;;;;;5115390;28;20110;-66
2023/08/30 10:50:32;;;;;;;1.92;1.20;;;24.00;69.10;;;;;;5116250;28;20119;-65
2023/08/30 10:52:58;;;;;;;0.90;0.90;;;24.10;68.50;;;;;;5116219;28;20019;-65
2023/08/30 10:55:25;;;;;;;1.63;1.27;;;24.20;68.60;;;;;;5116513;28;20024;-65
2023/08/30 10:58:06;;;;;;;1.42;0.93;;;24.30;68.20;;;;;;5116235;28;20480;-65
2023/08/30 11:00:33;;;;;;;1.10;0.90;;;24.40;67.30;;;;;;5115304;28;20032;-65
2023/08/30 11:02:59;;;;;;;0.80;0.80;;;24.50;67.40;;;;;;5115939;28;20456;-65
2023/08/30 11:05:27;;;;;;;1.42;0.70;;;24.60;66.80;;;;;;5116665;28;20077;-66
2023/08/30 11:07:54;;;;;;;0.70;0.70;;;24.60;66.90;;;;;;5116101;28;20012;-66
2023/08/30 11:10:21;;;;;;;0.77;0.73;;;24.80;66.30;;;;;;5116280;28;20043;-65
2023/08/30 11:12:49;;;;;;;1.10;1.00;;;24.80;65.20;;;;;;5114973;28;20115;-65
2023/08/30 11:15:15;;;;;;;0.75;0.75;;;24.90;65.30;;;;;;5116222;28;20031;-65
2023/08/30 11:17:42;;;;;;;0.90;0.70;;;24.90;65.30;;;;;;5115972;28;20094;-64
2023/08/30 11:20:13;;;;;;;1.08;0.70;;;25.00;65.20;;;;;;5116439;28;20031;-66
2023/08/30 11:22:44;;;;;;;1.33;0.93;;;25.10;65.10;;;;;;5115629;28;20019;-66
2023/08/30 11:25:13;;;;;;;0.98;0.85;;;25.20;64.50;;;;;;5116157;28;20023;-66
2023/08/30 11:27:39;;;;;;;2.30;1.13;;;25.20;64.20;;;;;;5115795;28;20484;-66
2023/08/30 11:30:10;;;;;;;1.10;0.82;;;25.30;64.10;;;;;;5115671;28;20383;-66
2023/08/30 11:32:42;;;;;;;1.23;1.00;;;25.40;63.60;;;;;;5114760;28;20070;-66
2023/08/30 11:35:08;;;;;;;3.03;1.13;;;25.40;63.20;;;;;;5114773;28;20020;-65
2023/08/30 11:37:34;;;;;;;0.60;0.60;;;25.50;62.80;;;;;;5115659;28;20020;-66
2023/08/30 11:40:06;;;;;;;1.13;0.63;;;25.40;62.50;;;;;;5115630;28;20026;-65
2023/08/30 11:42:32;;;;;;;1.92;1.70;;;25.50;62.30;;;;;;5115519;28;20063;-64
2023/08/30 11:45:02;;;;;;;1.90;1.67;;;25.60;62.20;;;;;;5114872;28;20068;-64
2023/08/30 11:47:28;;;;;;;2.60;0.93;;;25.70;61.10;;;;;;5115433;28;20024;-64
2023/08/30 11:49:56;;;;;;;2.55;1.10;;;25.90;61.00;;;;;;5115542;28;20473;-66
2023/08/30 11:52:23;;;;;;;0.77;0.77;;;26.00;61.10;;;;;;5115494;28;20035;-66
2023/08/30 11:54:51;;;;;;;0.95;0.70;;;26.20;59.70;;;;;;5115782;28;20055;-65
2023/08/30 11:57:18;;;;;;;0.45;0.45;;;26.40;59.30;;;;;;5114543;28;20027;-65
2023/08/30 11:59:44;;;;;;;0.63;0.63;;;26.50;59.80;;;;;;5115409;28;20442;-65
2023/08/30 12:02:13;;;;;;;2.35;1.00;;;26.60;59.50;;;;;;5115946;28;20361;-65
2023/08/30 12:04:43;;;;;;;1.45;0.70;;;26.90;58.40;;;;;;5116252;28;20377;-66
2023/08/30 12:07:20;;;;;;;1.60;0.70;;;26.90;57.70;;;;;;5116523;28;20045;-67
2023/08/30 12:09:46;;;;;;;0.43;0.43;;;27.10;57.80;;;;;;5116016;28;20033;-66
2023/08/30 12:12:12;;;;;;;0.65;0.65;;;27.20;57.40;;;;;;5115600;28;20102;-65
2023/08/30 12:14:39;;;;;;;0.77;0.60;;;27.20;55.50;;;;;;5115407;28;20027;-65
2023/08/30 12:17:05;;;;;;;0.80;0.60;;;27.20;56.80;;;;;;5115874;28;20037;-67
2023/08/30 12:19:32;;;;;;;0.98;0.50;;;27.20;56.50;;;;;;5115525;28;20107;-67
2023/08/30 12:22:04;;;;;;;0.50;0.50;;;27.20;55.20;;;;;;5115479;28;20024;-67
2023/08/30 12:24:50;;;;;;;0.50;0.50;;;27.10;53.10;;;;;;5115516;28;20082;-67
2023/08/30 12:27:16;;;;;;;2.33;0.40;;;27.00;52.50;;;;;;5115424;28;20028;-67
2023/08/30 12:29:43;;;;;;;0.30;0.30;;;26.90;51.80;;;;;;5115233;28;20011;-67
2023/08/30 12:32:09;;;;;;;1.20;0.35;;;26.60;51.90;;;;;;5114831;28;20130;-66
2023/08/30 12:34:35;;;;;;;0.98;0.40;;;26.40;52.20;;;;;;5115501;28;20099;-68
2023/08/30 12:37:03;;;;;;;0.40;0.40;;;26.40;51.70;;;;;;5115060;28;20093;-67
2023/08/30 12:39:29;;;;;;;0.50;0.40;;;26.30;51.90;;;;;;5115104;28;20081;-68
2023/08/30 12:41:55;;;;;;;0.80;0.50;;;26.40;51.80;;;;;;5114216;28;20027;-67
2023/08/30 12:44:21;;;;;;;0.50;0.50;;;26.40;51.00;;;;;;5118698;28;20114;-66
2023/08/30 12:46:47;;;;;;;1.77;0.50;;;26.40;50.30;;;;;;5119093;28;20099;-66
2023/08/30 12:49:13;;;;;;;0.75;0.47;;;26.30;50.70;;;;;;5118711;28;20449;-67